createdAt,value
2023-01-06T00:00:08.271Z,99.99
2023-01-06T00:01:08.234Z,99.99
2023-01-06T00:02:08.253Z,99.89
2023-01-06T00:03:08.219Z,99.89
2023-01-06T00:04:08.228Z,99.68
2023-01-06T00:05:08.211Z,99.68
2023-01-06T00:06:08.300Z,99.99
2023-01-06T00:07:08.786Z,99.79
2023-01-06T00:08:08.179Z,99.68
2023-01-06T00:09:08.173Z,99.99
2023-01-06T00:10:08.178Z,99.99
2023-01-06T00:11:08.156Z,99.99
2023-01-06T00:12:08.157Z,99.99
2023-01-06T00:13:08.136Z,99.38
2023-01-06T00:14:08.147Z,99.99
2023-01-06T00:15:08.185Z,99.68
2023-01-06T00:16:08.228Z,99.99
2023-01-06T00:17:08.129Z,99.43
2023-01-06T00:18:08.104Z,99.95
2023-01-06T00:19:09.114Z,99.89
2023-01-06T00:20:08.182Z,99.99
2023-01-06T00:21:08.082Z,99.89
2023-01-06T00:22:12.375Z,99.38
2023-01-06T00:23:08.068Z,99.58
2023-01-06T00:24:08.051Z,99.99
2023-01-06T00:25:08.085Z,99.99
2023-01-06T00:26:57.423Z,99.99
2023-01-06T00:27:57.424Z,99.99
2023-01-06T00:28:57.442Z,99.99
2023-01-06T00:29:57.414Z,99.99
2023-01-06T00:30:57.435Z,99.99
2023-01-06T00:31:57.381Z,99.99
2023-01-06T00:32:57.365Z,99.99
2023-01-06T00:33:57.376Z,99.99
2023-01-06T00:34:57.368Z,99.99
2023-01-06T00:35:58.448Z,99.95
2023-01-06T00:36:58.444Z,99.99
2023-01-06T00:37:58.519Z,99.99
2023-01-06T00:38:58.455Z,99.99
2023-01-06T00:39:58.415Z,99.99
2023-01-06T00:40:58.410Z,99.95
2023-01-06T00:41:58.398Z,99.99
2023-01-06T00:42:58.413Z,99.99
2023-01-06T00:43:59.082Z,99.89
2023-01-06T00:44:58.379Z,99.99
2023-01-06T00:45:58.397Z,99.99
2023-01-06T00:46:58.357Z,99.43
2023-01-06T00:47:58.373Z,99.99
2023-01-06T00:49:07.190Z,99.99
2023-01-06T00:50:00.344Z,99.99
2023-01-06T00:50:58.354Z,99.99
2023-01-06T00:51:59.175Z,99.99
2023-01-06T00:52:59.089Z,99.99
2023-01-06T00:53:58.327Z,99.99
2023-01-06T00:54:58.313Z,99.99
2023-01-06T00:55:58.291Z,99.95
2023-01-06T00:56:58.315Z,99.95
2023-01-06T00:57:58.271Z,99.99
2023-01-06T00:58:58.249Z,99.99
2023-01-06T00:59:58.254Z,99.33
2023-01-06T01:00:59.169Z,99.99
2023-01-06T01:02:00.229Z,99.74
2023-01-06T01:02:58.334Z,99.63
2023-01-06T01:03:59.154Z,99.49
2023-01-06T01:05:05.585Z,99.90
2023-01-06T01:05:58.238Z,99.79
2023-01-06T01:06:58.674Z,99.59
2023-01-06T01:07:58.204Z,99.38
2023-01-06T01:08:58.203Z,99.18
2023-01-06T01:09:58.173Z,99.28
2023-01-06T01:10:58.170Z,98.77
2023-01-06T01:11:58.164Z,98.87
2023-01-06T01:12:58.150Z,99.28
2023-01-06T01:13:58.142Z,98.97
2023-01-06T01:14:58.147Z,98.67
2023-01-06T01:15:58.152Z,98.67
2023-01-06T01:16:58.130Z,98.67
2023-01-06T01:17:58.123Z,99.38
2023-01-06T01:18:58.109Z,98.87
2023-01-06T01:19:58.095Z,98.97
2023-01-06T01:20:58.090Z,98.67
2023-01-06T01:21:58.084Z,99.18
2023-01-06T01:22:58.094Z,98.87
2023-01-06T01:23:58.065Z,98.77
2023-01-06T01:24:58.589Z,98.52
2023-01-06T01:25:58.152Z,98.21
2023-01-06T01:26:58.058Z,98.42
2023-01-06T01:27:58.036Z,98.11
2023-01-06T01:28:58.037Z,98.32
2023-01-06T01:29:58.665Z,98.11
2023-01-06T01:30:58.038Z,98.21
2023-01-06T01:31:58.008Z,97.91
2023-01-06T01:32:58.001Z,98.21
2023-01-06T01:33:57.986Z,98.21
2023-01-06T01:34:58.662Z,98.52
2023-01-06T01:35:57.971Z,98.52
2023-01-06T01:36:57.990Z,98.52
2023-01-06T01:37:57.959Z,98.32
2023-01-06T01:39:00.588Z,98.21
2023-01-06T01:39:58.661Z,98.25
2023-01-06T01:40:57.936Z,98.32
2023-01-06T01:41:58.699Z,98.42
2023-01-06T01:42:57.922Z,98.67
2023-01-06T01:43:57.900Z,98.77
2023-01-06T01:44:58.581Z,98.62
2023-01-06T01:45:57.889Z,98.42
2023-01-06T01:46:57.884Z,98.52
2023-01-06T01:47:57.889Z,98.72
2023-01-06T01:48:57.877Z,98.77
2023-01-06T01:49:57.858Z,98.62
2023-01-06T01:50:57.862Z,98.05
2023-01-06T01:51:57.839Z,98.11
2023-01-06T01:52:57.853Z,98.62
2023-01-06T01:53:57.823Z,98.11
2023-01-06T01:55:00.641Z,97.91
2023-01-06T01:55:58.826Z,98.52
2023-01-06T01:56:57.803Z,98.00
2023-01-06T01:57:57.896Z,98.21
2023-01-06T01:58:57.786Z,98.00
2023-01-06T01:59:57.797Z,98.21
2023-01-06T02:00:57.767Z,98.07
2023-01-06T02:01:57.861Z,98.47
2023-01-06T02:02:57.802Z,98.11
2023-01-06T02:03:57.774Z,98.27
2023-01-06T02:04:57.763Z,98.21
2023-01-06T02:05:57.724Z,98.52
2023-01-06T02:06:57.728Z,98.32
2023-01-06T02:07:57.730Z,98.47
2023-01-06T02:08:57.706Z,98.07
2023-01-06T02:09:57.700Z,98.07
2023-01-06T02:10:57.678Z,97.86
2023-01-06T02:11:57.729Z,97.14
2023-01-06T02:12:57.695Z,97.08
2023-01-06T02:13:57.771Z,98.11
2023-01-06T02:14:57.689Z,98.32
2023-01-06T02:15:57.713Z,98.07
2023-01-06T02:16:57.647Z,98.27
2023-01-06T02:17:59.202Z,98.52
2023-01-06T02:18:57.640Z,98.47
2023-01-06T02:19:57.612Z,98.47
2023-01-06T02:20:57.616Z,97.86
2023-01-06T02:21:57.619Z,98.16
2023-01-06T02:22:57.620Z,97.65
2023-01-06T02:23:57.615Z,97.55
2023-01-06T02:24:59.268Z,97.96
2023-01-06T02:25:57.574Z,97.86
2023-01-06T02:26:57.589Z,97.86
2023-01-06T02:27:57.552Z,97.96
2023-01-06T02:28:57.602Z,98.16
2023-01-06T02:29:57.637Z,98.37
2023-01-06T02:30:57.591Z,98.37
2023-01-06T02:31:57.535Z,98.37
2023-01-06T02:32:57.505Z,98.37
2023-01-06T02:33:57.514Z,98.27
2023-01-06T02:34:57.510Z,98.27
2023-01-06T02:35:58.095Z,98.07
2023-01-06T02:36:57.500Z,98.16
2023-01-06T02:37:57.477Z,98.27
2023-01-06T02:38:57.476Z,98.07
2023-01-06T02:39:57.468Z,98.07
2023-01-06T02:40:57.460Z,98.16
2023-01-06T02:41:57.428Z,98.07
2023-01-06T02:42:58.446Z,98.27
2023-01-06T02:43:57.430Z,98.93
2023-01-06T02:44:57.428Z,99.13
2023-01-06T02:45:57.523Z,98.83
2023-01-06T02:46:57.408Z,99.03
2023-01-06T02:47:59.102Z,98.62
2023-01-06T02:48:58.400Z,98.47
2023-01-06T02:49:57.571Z,98.88
2023-01-06T02:50:58.378Z,98.62
2023-01-06T02:51:57.379Z,98.47
2023-01-06T02:52:57.366Z,98.58
2023-01-06T02:53:57.372Z,98.68
2023-01-06T02:54:57.348Z,98.58
2023-01-06T02:55:57.332Z,98.88
2023-01-06T02:56:57.351Z,98.88
2023-01-06T02:57:57.318Z,98.88
2023-01-06T02:58:57.315Z,98.88
2023-01-06T02:59:57.310Z,98.47
2023-01-06T03:00:57.300Z,98.78
2023-01-06T03:01:57.482Z,98.88
2023-01-06T03:02:57.287Z,98.88
2023-01-06T03:03:57.264Z,98.58
2023-01-06T03:04:57.315Z,98.43
2023-01-06T03:05:57.310Z,98.88
2023-01-06T03:06:57.246Z,98.83
2023-01-06T03:07:57.237Z,98.74
2023-01-06T03:08:57.231Z,98.94
2023-01-06T03:09:57.230Z,98.88
2023-01-06T03:10:58.186Z,98.94
2023-01-06T03:11:57.212Z,98.74
2023-01-06T03:12:57.222Z,98.83
2023-01-06T03:13:59.108Z,98.88
2023-01-06T03:14:57.198Z,98.83
2023-01-06T03:15:57.253Z,98.74
2023-01-06T03:16:57.177Z,98.88
2023-01-06T03:17:57.283Z,98.99
2023-01-06T03:18:57.155Z,99.80
2023-01-06T03:19:57.174Z,99.60
2023-01-06T03:20:57.153Z,99.45
2023-01-06T03:21:57.130Z,99.60
2023-01-06T03:22:57.136Z,99.50
2023-01-06T03:23:57.135Z,99.86
2023-01-06T03:24:57.104Z,98.74
2023-01-06T03:25:57.129Z,99.40
2023-01-06T03:26:57.091Z,99.40
2023-01-06T03:27:57.124Z,99.99
2023-01-06T03:28:57.076Z,99.91
2023-01-06T03:29:57.075Z,99.80
2023-01-06T03:30:57.130Z,99.99
2023-01-06T03:31:57.048Z,99.99
2023-01-06T03:32:57.047Z,99.99
2023-01-06T03:33:57.149Z,99.99
2023-01-06T03:34:57.034Z,99.99
2023-01-06T03:35:57.034Z,99.96
2023-01-06T03:36:57.004Z,99.91
2023-01-06T03:37:57.006Z,99.80
2023-01-06T03:38:57.013Z,99.86
2023-01-06T03:39:57.789Z,99.99
2023-01-06T03:40:56.989Z,99.45
2023-01-06T03:41:56.963Z,99.76
2023-01-06T03:42:56.961Z,99.66
2023-01-06T03:43:57.703Z,99.99
2023-01-06T03:44:56.957Z,99.96
2023-01-06T03:45:56.969Z,99.96
2023-01-06T03:46:57.699Z,99.35
2023-01-06T03:47:57.922Z,99.76
2023-01-06T03:48:57.625Z,99.86
2023-01-06T03:49:57.001Z,99.55
2023-01-06T03:50:56.945Z,99.99
2023-01-06T03:51:56.906Z,99.55
2023-01-06T03:52:56.878Z,99.76
2023-01-06T03:53:56.868Z,99.35
2023-01-06T03:54:56.881Z,99.45
2023-01-06T03:55:56.856Z,99.55
2023-01-06T03:56:56.854Z,99.55
2023-01-06T03:57:56.835Z,99.45
2023-01-06T03:58:56.865Z,99.55
2023-01-06T03:59:56.835Z,99.76
2023-01-06T04:00:56.859Z,99.55
2023-01-06T04:01:56.874Z,99.45
2023-01-06T04:02:56.816Z,99.55
2023-01-06T04:03:56.903Z,99.25
2023-01-06T04:04:56.798Z,99.15
2023-01-06T04:05:56.997Z,99.35
2023-01-06T04:06:56.766Z,98.94
2023-01-06T04:07:56.769Z,99.15
2023-01-06T04:08:56.751Z,99.10
2023-01-06T04:09:56.733Z,98.94
2023-01-06T04:10:56.726Z,98.53
2023-01-06T04:11:56.734Z,98.49
2023-01-06T04:12:56.731Z,98.79
2023-01-06T04:13:56.708Z,98.79
2023-01-06T04:14:56.704Z,98.74
2023-01-06T04:15:56.723Z,98.90
2023-01-06T04:16:56.687Z,98.94
2023-01-06T04:17:56.702Z,98.53
2023-01-06T04:18:56.677Z,99.35
2023-01-06T04:19:56.659Z,99.04
2023-01-06T04:20:56.652Z,99.04
2023-01-06T04:21:56.737Z,99.35
2023-01-06T04:22:56.651Z,99.45
2023-01-06T04:23:56.631Z,99.66
2023-01-06T04:24:57.205Z,99.86
2023-01-06T04:25:56.619Z,99.45
2023-01-06T04:26:56.607Z,99.66
2023-01-06T04:27:56.625Z,99.86
2023-01-06T04:28:56.611Z,99.45
2023-01-06T04:29:56.578Z,99.86
2023-01-06T04:30:56.589Z,99.96
2023-01-06T04:31:56.605Z,99.99
2023-01-06T04:32:56.562Z,99.76
2023-01-06T04:33:56.550Z,99.86
2023-01-06T04:34:56.551Z,99.61
2023-01-06T04:35:56.538Z,99.55
2023-01-06T04:36:57.227Z,99.45
2023-01-06T04:37:56.619Z,99.45
2023-01-06T04:38:56.513Z,99.66
2023-01-06T04:39:56.512Z,99.76
2023-01-06T04:40:56.504Z,99.66
2023-01-06T04:41:57.208Z,99.76
2023-01-06T04:42:56.492Z,99.86
2023-01-06T04:43:58.105Z,99.35
2023-01-06T04:44:57.471Z,99.66
2023-01-06T04:45:56.639Z,99.86
2023-01-06T04:46:56.462Z,99.66
2023-01-06T04:47:56.473Z,99.86
2023-01-06T04:48:56.442Z,99.86
2023-01-06T04:49:56.440Z,99.76
2023-01-06T04:50:56.436Z,99.35
2023-01-06T04:51:56.444Z,99.35
2023-01-06T04:52:56.411Z,99.45
2023-01-06T04:53:56.514Z,99.45
2023-01-06T04:54:56.389Z,99.35
2023-01-06T04:55:56.394Z,99.45
2023-01-06T04:56:56.377Z,99.86
2023-01-06T04:57:56.426Z,99.25
2023-01-06T04:58:56.367Z,99.55
2023-01-06T04:59:56.366Z,99.15
2023-01-06T05:00:56.391Z,99.86
2023-01-06T05:01:56.437Z,99.76
2023-01-06T05:02:56.334Z,99.15
2023-01-06T05:03:56.374Z,99.35
2023-01-06T05:04:56.326Z,99.45
2023-01-06T05:05:56.307Z,99.45
2023-01-06T05:06:56.308Z,99.55
2023-01-06T05:07:56.312Z,99.04
2023-01-06T05:08:57.140Z,99.45
2023-01-06T05:09:57.365Z,98.53
2023-01-06T05:10:56.279Z,99.04
2023-01-06T05:11:57.211Z,99.15
2023-01-06T05:12:56.244Z,99.15
2023-01-06T05:13:56.256Z,99.04
2023-01-06T05:14:56.232Z,98.43
2023-01-06T05:15:56.243Z,99.04
2023-01-06T05:16:56.269Z,98.63
2023-01-06T05:17:56.226Z,99.04
2023-01-06T05:18:56.214Z,98.74
2023-01-06T05:19:56.206Z,98.33
2023-01-06T05:20:56.229Z,98.83
2023-01-06T05:21:56.195Z,98.74
2023-01-06T05:22:56.173Z,98.43
2023-01-06T05:23:56.174Z,98.33
2023-01-06T05:24:57.133Z,98.43
2023-01-06T05:25:56.259Z,98.12
2023-01-06T05:26:56.160Z,98.07
2023-01-06T05:27:56.138Z,97.97
2023-01-06T05:28:58.641Z,96.95
2023-01-06T05:29:56.116Z,97.25
2023-01-06T05:30:56.126Z,96.95
2023-01-06T05:31:56.184Z,96.64
2023-01-06T05:32:56.121Z,96.54
2023-01-06T05:33:56.099Z,96.74
2023-01-06T05:34:56.083Z,96.23
2023-01-06T05:35:56.069Z,96.23
2023-01-06T05:36:57.085Z,96.23
2023-01-06T05:37:56.054Z,96.33
2023-01-06T05:38:56.051Z,95.62
2023-01-06T05:39:56.036Z,96.03
2023-01-06T05:40:56.035Z,95.00
2023-01-06T05:41:56.859Z,94.49
2023-01-06T05:42:56.036Z,94.18
2023-01-06T05:43:56.019Z,93.77
2023-01-06T05:44:55.996Z,93.88
2023-01-06T05:45:56.737Z,93.77
2023-01-06T05:46:55.996Z,93.67
2023-01-06T05:47:56.646Z,93.67
2023-01-06T05:48:55.977Z,93.06
2023-01-06T05:49:55.963Z,92.55
2023-01-06T05:50:55.948Z,92.65
2023-01-06T05:51:55.936Z,92.71
2023-01-06T05:52:55.949Z,92.44
2023-01-06T05:53:55.927Z,91.83
2023-01-06T05:54:55.922Z,92.44
2023-01-06T05:55:56.740Z,91.99
2023-01-06T05:56:55.953Z,92.19
2023-01-06T05:57:55.993Z,92.10
2023-01-06T05:58:55.883Z,92.14
2023-01-06T05:59:55.882Z,92.14
2023-01-06T06:00:55.876Z,92.03
2023-01-06T06:01:55.933Z,91.73
2023-01-06T06:02:55.862Z,92.34
2023-01-06T06:03:56.003Z,91.63
2023-01-06T06:04:55.842Z,91.83
2023-01-06T06:05:55.834Z,91.63
2023-01-06T06:06:55.821Z,91.42
2023-01-06T06:07:55.818Z,91.11
2023-01-06T06:08:55.841Z,90.70
2023-01-06T06:09:55.799Z,91.07
2023-01-06T06:10:56.740Z,89.89
2023-01-06T06:11:55.791Z,89.47
2023-01-06T06:12:55.782Z,89.47
2023-01-06T06:13:55.875Z,89.43
2023-01-06T06:14:55.756Z,88.96
2023-01-06T06:15:55.763Z,88.24
2023-01-06T06:16:55.744Z,88.45
2023-01-06T06:17:56.726Z,88.35
2023-01-06T06:18:55.750Z,88.10
2023-01-06T06:19:55.717Z,87.73
2023-01-06T06:20:55.721Z,88.56
2023-01-06T06:21:55.695Z,88.45
2023-01-06T06:22:55.699Z,87.94
2023-01-06T06:23:55.693Z,87.90
2023-01-06T06:24:55.680Z,87.70
2023-01-06T06:25:55.683Z,87.84
2023-01-06T06:26:55.684Z,87.70
2023-01-06T06:27:55.663Z,88.04
2023-01-06T06:28:55.666Z,87.94
2023-01-06T06:29:55.739Z,88.35
2023-01-06T06:30:55.844Z,88.04
2023-01-06T06:31:56.635Z,88.00
2023-01-06T06:32:55.610Z,87.79
2023-01-06T06:33:56.249Z,87.79
2023-01-06T06:34:55.617Z,87.94
2023-01-06T06:35:55.599Z,87.94
2023-01-06T06:36:55.587Z,87.94
2023-01-06T06:37:55.637Z,88.24
2023-01-06T06:38:55.569Z,88.35
2023-01-06T06:39:55.561Z,87.94
2023-01-06T06:40:55.550Z,87.94
2023-01-06T06:41:55.557Z,87.84
2023-01-06T06:42:55.543Z,87.63
2023-01-06T06:43:55.533Z,86.40
2023-01-06T06:44:55.524Z,86.40
2023-01-06T06:45:55.650Z,86.51
2023-01-06T06:46:55.513Z,86.81
2023-01-06T06:47:55.509Z,87.12
2023-01-06T06:48:55.486Z,86.91
2023-01-06T06:49:55.487Z,87.02
2023-01-06T06:50:55.518Z,86.91
2023-01-06T06:51:55.659Z,86.61
2023-01-06T06:52:56.473Z,86.81
2023-01-06T06:53:55.483Z,86.51
2023-01-06T06:54:55.447Z,86.40
2023-01-06T06:55:55.459Z,86.40
2023-01-06T06:56:55.437Z,86.71
2023-01-06T06:57:55.446Z,86.51
2023-01-06T06:58:55.397Z,86.91
2023-01-06T06:59:56.437Z,86.51
2023-01-06T07:00:55.398Z,86.51
2023-01-06T07:01:55.613Z,85.89
2023-01-06T07:02:55.375Z,85.89
2023-01-06T07:03:55.370Z,85.99
2023-01-06T07:04:55.376Z,85.79
2023-01-06T07:05:55.360Z,85.69
2023-01-06T07:06:55.386Z,85.89
2023-01-06T07:07:55.340Z,85.79
2023-01-06T07:08:55.338Z,85.79
2023-01-06T07:09:55.329Z,85.83
2023-01-06T07:10:56.254Z,85.79
2023-01-06T07:11:55.340Z,85.69
2023-01-06T07:12:55.297Z,85.99
2023-01-06T07:13:55.304Z,85.99
2023-01-06T07:14:55.297Z,85.83
2023-01-06T07:15:55.333Z,86.75
2023-01-06T07:16:55.274Z,86.30
2023-01-06T07:17:55.359Z,86.04
2023-01-06T07:18:55.286Z,86.10
2023-01-06T07:19:55.243Z,86.04
2023-01-06T07:20:55.238Z,86.34
2023-01-06T07:21:55.227Z,86.04
2023-01-06T07:22:55.236Z,86.34
2023-01-06T07:23:55.223Z,86.75
2023-01-06T07:24:55.203Z,86.14
2023-01-06T07:25:55.222Z,86.24
2023-01-06T07:26:55.186Z,86.04
2023-01-06T07:27:56.166Z,85.79
2023-01-06T07:28:55.196Z,85.83
2023-01-06T07:29:55.180Z,85.72
2023-01-06T07:30:55.189Z,85.83
2023-01-06T07:31:55.153Z,85.99
2023-01-06T07:32:55.148Z,85.89
2023-01-06T07:33:55.233Z,85.31
2023-01-06T07:34:55.121Z,85.42
2023-01-06T07:35:55.127Z,86.20
2023-01-06T07:36:55.115Z,85.38
2023-01-06T07:37:56.959Z,86.10
2023-01-06T07:38:55.091Z,85.93
2023-01-06T07:39:55.078Z,85.69
2023-01-06T07:40:55.091Z,84.87
2023-01-06T07:41:56.081Z,85.89
2023-01-06T07:42:55.069Z,85.28
2023-01-06T07:43:55.060Z,84.46
2023-01-06T07:44:55.039Z,85.48
2023-01-06T07:45:55.122Z,85.42
2023-01-06T07:46:55.035Z,85.42
2023-01-06T07:47:55.019Z,85.52
2023-01-06T07:48:55.020Z,85.93
2023-01-06T07:49:55.134Z,84.91
2023-01-06T07:50:55.002Z,85.52
2023-01-06T07:51:54.999Z,86.24
2023-01-06T07:52:54.977Z,86.10
2023-01-06T07:53:54.973Z,85.48
2023-01-06T07:54:54.972Z,85.48
2023-01-06T07:55:54.978Z,85.58
2023-01-06T07:56:54.947Z,85.58
2023-01-06T07:57:54.958Z,85.17
2023-01-06T07:58:54.951Z,85.58
2023-01-06T07:59:54.934Z,85.38
2023-01-06T08:00:54.916Z,85.69
2023-01-06T08:01:55.084Z,84.46
2023-01-06T08:02:54.939Z,84.97
2023-01-06T08:03:54.889Z,83.95
2023-01-06T08:04:54.898Z,84.25
2023-01-06T08:05:54.982Z,84.46
2023-01-06T08:06:54.866Z,84.56
2023-01-06T08:07:54.869Z,84.66
2023-01-06T08:08:54.867Z,85.17
2023-01-06T08:09:54.848Z,84.97
2023-01-06T08:10:54.835Z,84.77
2023-01-06T08:11:54.843Z,84.66
2023-01-06T08:12:54.863Z,84.46
2023-01-06T08:13:54.815Z,84.97
2023-01-06T08:14:54.817Z,84.25
2023-01-06T08:15:54.854Z,84.36
2023-01-06T08:16:54.799Z,84.66
2023-01-06T08:17:54.798Z,84.56
2023-01-06T08:18:54.778Z,84.56
2023-01-06T08:19:54.771Z,84.56
2023-01-06T08:20:54.757Z,84.05
2023-01-06T08:21:54.868Z,84.56
2023-01-06T08:22:54.744Z,84.66
2023-01-06T08:23:54.732Z,84.15
2023-01-06T08:24:54.727Z,84.15
2023-01-06T08:25:54.724Z,84.46
2023-01-06T08:26:54.713Z,83.91
2023-01-06T08:27:55.287Z,83.50
2023-01-06T08:28:55.698Z,83.09
2023-01-06T08:29:55.699Z,82.98
2023-01-06T08:30:55.343Z,82.78
2023-01-06T08:32:09.295Z,83.29
2023-01-06T08:32:56.668Z,83.29
2023-01-06T08:33:54.671Z,83.33
2023-01-06T08:34:54.644Z,82.71
2023-01-06T08:35:54.644Z,82.98
2023-01-06T08:36:54.654Z,82.89
2023-01-06T08:37:54.737Z,82.27
2023-01-06T08:38:54.633Z,82.43
2023-01-06T08:39:55.191Z,82.17
2023-01-06T08:40:54.612Z,81.93
2023-01-06T08:41:54.592Z,81.93
2023-01-06T08:42:54.586Z,81.62
2023-01-06T08:43:54.576Z,81.41
2023-01-06T08:44:54.580Z,81.31
2023-01-06T08:45:54.551Z,81.31
2023-01-06T08:46:54.545Z,81.01
2023-01-06T08:47:54.566Z,81.07
2023-01-06T08:48:54.530Z,81.07
2023-01-06T08:49:54.527Z,81.31
2023-01-06T08:50:54.516Z,81.45
2023-01-06T08:51:54.510Z,81.82
2023-01-06T08:52:54.498Z,81.65
2023-01-06T08:53:54.611Z,81.51
2023-01-06T08:54:54.512Z,81.41
2023-01-06T08:55:54.508Z,81.31
2023-01-06T08:56:54.539Z,81.17
2023-01-06T08:57:55.373Z,80.97
2023-01-06T08:58:54.543Z,81.01
2023-01-06T09:00:27.214Z,80.76
2023-01-06T09:00:54.454Z,80.69
2023-01-06T09:01:54.587Z,80.60
2023-01-06T09:02:55.210Z,80.76
2023-01-06T09:03:54.438Z,80.76
2023-01-06T09:04:54.457Z,80.15
2023-01-06T09:05:54.419Z,80.05
2023-01-06T09:06:55.689Z,80.05
2023-01-06T09:07:54.389Z,79.64
2023-01-06T09:08:54.384Z,80.15
2023-01-06T09:09:54.487Z,80.25
2023-01-06T09:10:54.384Z,79.84
2023-01-06T09:11:54.360Z,79.84
2023-01-06T09:12:54.362Z,79.74
2023-01-06T09:13:54.344Z,79.53
2023-01-06T09:14:55.220Z,79.88
2023-01-06T09:15:54.355Z,80.35
2023-01-06T09:16:54.326Z,80.15
2023-01-06T09:17:54.318Z,80.19
2023-01-06T09:18:54.298Z,79.88
2023-01-06T09:19:55.306Z,80.25
2023-01-06T09:20:54.397Z,80.25
2023-01-06T09:21:54.290Z,80.35
2023-01-06T09:22:54.273Z,80.56
2023-01-06T09:23:54.264Z,80.46
2023-01-06T09:25:43.326Z,80.35
2023-01-06T09:26:43.208Z,79.84
2023-01-06T09:27:43.202Z,80.05
2023-01-06T09:28:43.235Z,79.91
2023-01-06T09:29:43.202Z,80.01
2023-01-06T09:30:43.177Z,79.94
2023-01-06T09:31:43.175Z,79.60
2023-01-06T09:32:43.167Z,79.39
2023-01-06T09:33:43.153Z,79.60
2023-01-06T09:34:43.152Z,79.50
2023-01-06T09:35:43.143Z,79.64
2023-01-06T09:36:43.136Z,79.80
2023-01-06T09:37:43.124Z,79.94
2023-01-06T09:38:43.247Z,79.91
2023-01-06T09:39:43.112Z,79.50
2023-01-06T09:40:43.097Z,79.64
2023-01-06T09:41:43.107Z,79.60
2023-01-06T09:42:44.108Z,79.50
2023-01-06T09:43:43.076Z,80.32
2023-01-06T09:44:43.071Z,79.60
2023-01-06T09:45:43.054Z,79.91
2023-01-06T09:46:43.134Z,79.70
2023-01-06T09:47:43.065Z,79.50
2023-01-06T09:48:43.042Z,79.39
2023-01-06T09:49:43.025Z,79.91
2023-01-06T09:50:43.040Z,79.29
2023-01-06T09:51:43.012Z,79.09
2023-01-06T09:52:44.107Z,79.25
2023-01-06T09:53:45.726Z,78.78
2023-01-06T09:54:44.087Z,78.95
2023-01-06T09:55:44.084Z,79.16
2023-01-06T09:56:45.965Z,78.95
2023-01-06T09:57:44.356Z,79.25
2023-01-06T09:58:44.056Z,79.16
2023-01-06T09:59:44.049Z,79.25
2023-01-06T10:00:44.057Z,79.36
2023-01-06T10:01:44.143Z,79.46
2023-01-06T10:02:44.019Z,78.85
2023-01-06T10:03:44.044Z,79.97
2023-01-06T10:04:44.009Z,79.57
2023-01-06T10:05:44.065Z,79.05
2023-01-06T10:06:43.988Z,78.75
2023-01-06T10:07:43.993Z,79.57
2023-01-06T10:08:43.988Z,79.87
2023-01-06T10:09:43.996Z,79.57
2023-01-06T10:10:43.957Z,79.46
2023-01-06T10:11:43.946Z,79.77
2023-01-06T10:12:44.048Z,79.57
2023-01-06T10:13:43.947Z,80.18
2023-01-06T10:14:43.928Z,80.32
2023-01-06T10:15:43.919Z,80.11
2023-01-06T10:16:43.924Z,80.62
2023-01-06T10:17:43.926Z,81.34
2023-01-06T10:18:45.696Z,81.34
2023-01-06T10:19:43.890Z,81.58
2023-01-06T10:20:44.903Z,81.79
2023-01-06T10:21:45.608Z,81.65
2023-01-06T10:22:43.864Z,81.74
2023-01-06T10:23:43.862Z,82.05
2023-01-06T10:24:43.852Z,81.88
2023-01-06T10:25:43.888Z,81.85
2023-01-06T10:26:43.848Z,82.40
2023-01-06T10:27:44.593Z,82.70
2023-01-06T10:28:43.915Z,82.70
2023-01-06T10:29:43.817Z,82.81
2023-01-06T10:30:44.540Z,83.01
2023-01-06T10:31:44.861Z,83.01
2023-01-06T10:32:43.788Z,83.22
2023-01-06T10:33:43.772Z,83.22
2023-01-06T10:34:43.783Z,83.28
2023-01-06T10:35:43.765Z,83.28
2023-01-06T10:36:43.774Z,82.97
2023-01-06T10:37:45.599Z,82.87
2023-01-06T10:38:43.740Z,82.32
2023-01-06T10:39:43.727Z,82.83
2023-01-06T10:40:43.757Z,82.36
2023-01-06T10:41:44.650Z,82.42
2023-01-06T10:42:44.755Z,82.32
2023-01-06T10:43:43.705Z,81.91
2023-01-06T10:44:43.828Z,81.60
2023-01-06T10:45:43.740Z,81.26
2023-01-06T10:46:43.759Z,81.91
2023-01-06T10:47:44.720Z,81.81
2023-01-06T10:48:43.664Z,82.01
2023-01-06T10:49:43.660Z,81.98
2023-01-06T10:50:43.659Z,81.60
2023-01-06T10:51:45.632Z,81.60
2023-01-06T10:52:43.686Z,81.30
2023-01-06T10:53:44.607Z,81.87
2023-01-06T10:54:43.625Z,81.46
2023-01-06T10:55:43.599Z,81.26
2023-01-06T10:56:43.624Z,80.96
2023-01-06T10:57:43.611Z,81.26
2023-01-06T10:58:43.604Z,81.12
2023-01-06T10:59:44.608Z,80.71
2023-01-06T11:00:44.282Z,80.71
2023-01-06T11:01:43.679Z,80.41
2023-01-06T11:02:43.617Z,80.82
2023-01-06T11:03:43.585Z,80.96
2023-01-06T11:04:43.536Z,80.75
2023-01-06T11:05:45.182Z,80.30
2023-01-06T11:07:30.996Z,80.10
2023-01-06T11:08:30.914Z,79.75
2023-01-06T11:09:30.910Z,79.45
2023-01-06T11:10:31.781Z,79.14
2023-01-06T11:11:30.892Z,79.04
2023-01-06T11:12:30.874Z,79.25
2023-01-06T11:13:32.915Z,79.55
2023-01-06T11:14:30.863Z,78.94
2023-01-06T11:15:32.812Z,78.67
2023-01-06T11:16:31.065Z,79.08
2023-01-06T11:17:30.846Z,79.08
2023-01-06T11:18:30.849Z,79.14
2023-01-06T11:19:30.830Z,79.25
2023-01-06T11:20:31.912Z,78.74
2023-01-06T11:21:31.912Z,78.67
2023-01-06T11:23:32.906Z,79.59
2023-01-06T11:24:32.806Z,79.90
2023-01-06T11:25:31.873Z,80.30
2023-01-06T11:26:31.872Z,79.90
2023-01-06T11:27:31.889Z,79.28
2023-01-06T11:28:32.846Z,79.59
2023-01-06T11:29:31.855Z,79.69
2023-01-06T11:30:31.837Z,79.28
2023-01-06T11:31:32.419Z,79.49
2023-01-06T11:32:33.460Z,79.18
2023-01-06T11:33:31.833Z,79.93
2023-01-06T11:34:31.860Z,79.90
2023-01-06T11:35:32.798Z,79.69
2023-01-06T11:36:31.781Z,79.49
2023-01-06T11:37:31.841Z,79.28
2023-01-06T11:38:31.766Z,79.18
2023-01-06T11:39:31.762Z,79.59
2023-01-06T11:40:31.764Z,78.88
2023-01-06T11:41:31.743Z,79.39
2023-01-06T11:42:32.383Z,79.12
2023-01-06T11:43:31.773Z,78.98
2023-01-06T11:44:31.749Z,79.08
2023-01-06T11:45:31.753Z,78.98
2023-01-06T11:46:31.699Z,78.57
2023-01-06T11:47:32.704Z,78.37
2023-01-06T11:48:31.809Z,78.47
2023-01-06T11:49:31.690Z,78.77
2023-01-06T11:50:31.694Z,78.43
2023-01-06T11:51:31.667Z,77.92
2023-01-06T11:52:31.675Z,78.67
2023-01-06T11:53:31.649Z,78.67
2023-01-06T11:54:31.647Z,78.12
2023-01-06T11:55:31.666Z,77.82
2023-01-06T11:56:31.628Z,77.65
2023-01-06T11:57:31.639Z,78.02
2023-01-06T11:58:31.611Z,78.23
2023-01-06T11:59:31.595Z,77.72
2023-01-06T12:00:31.617Z,77.11
2023-01-06T12:02:38.005Z,77.62
2023-01-06T12:03:38.115Z,78.02
2023-01-06T12:04:40.836Z,77.82
2023-01-06T12:05:38.943Z,78.33
2023-01-06T12:06:38.953Z,77.82
2023-01-06T12:07:38.941Z,77.82
2023-01-06T12:08:38.925Z,77.82
2023-01-06T12:09:38.920Z,77.58
2023-01-06T12:10:40.822Z,77.37
2023-01-06T12:11:38.941Z,78.30
2023-01-06T12:12:39.809Z,77.68
2023-01-06T12:13:44.520Z,77.68
2023-01-06T12:14:40.897Z,77.27
2023-01-06T12:15:38.909Z,77.48
2023-01-06T12:16:38.894Z,77.07
2023-01-06T12:17:39.162Z,77.27
2023-01-06T12:18:38.839Z,76.90
2023-01-06T12:19:38.968Z,77.51
2023-01-06T12:20:38.837Z,77.58
2023-01-06T12:21:38.827Z,77.27
2023-01-06T12:22:38.805Z,76.56
2023-01-06T12:23:38.807Z,76.87
2023-01-06T12:24:38.834Z,76.87
2023-01-06T12:25:38.820Z,76.76
2023-01-06T12:26:38.802Z,77.07
2023-01-06T12:27:39.769Z,77.48
2023-01-06T12:28:39.345Z,77.92
2023-01-06T12:29:39.794Z,77.68
2023-01-06T12:30:38.795Z,78.39
2023-01-06T12:31:38.737Z,77.78
2023-01-06T12:32:38.728Z,77.17
2023-01-06T12:33:38.720Z,77.07
2023-01-06T12:34:38.720Z,77.68
2023-01-06T12:35:38.726Z,78.30
2023-01-06T12:36:38.714Z,78.19
2023-01-06T12:37:38.691Z,77.98
2023-01-06T12:38:38.695Z,77.98
2023-01-06T12:39:39.321Z,78.02
2023-01-06T12:40:38.666Z,77.82
2023-01-06T12:41:38.669Z,77.48
2023-01-06T12:42:38.652Z,77.58
2023-01-06T12:43:38.675Z,78.09
2023-01-06T12:44:38.668Z,77.68
2023-01-06T12:45:41.148Z,78.19
2023-01-06T12:46:39.422Z,78.84
2023-01-06T12:47:38.629Z,78.74
2023-01-06T12:48:38.611Z,79.14
2023-01-06T12:49:38.591Z,78.74
2023-01-06T12:50:38.620Z,78.84
2023-01-06T12:51:38.677Z,78.84
2023-01-06T12:52:38.593Z,79.25
2023-01-06T12:53:38.573Z,78.74
2023-01-06T12:54:38.576Z,79.75
2023-01-06T12:55:38.548Z,79.08
2023-01-06T12:56:38.544Z,79.08